Time;durP1;ratioP1;P1;durP2;ratioP2;P2;SDS_P1;SDS_P2;PMS_P1;PMS_P2;Temp;Humidity;BMP_temperature;BMP_pressure;BME280_temperature;BME280_humidity;BME280_pressure;Samples;Min_cycle;Max_cycle;Signal;HPM_P1;HPM_P2
2023/05/18 05:51:14;;;;;;;4.57;1.90;;;;;;;;;;10501656;28;20420;-83
2023/05/18 05:56:15;;;;;;;;;;;;;;;;;;10500342;28;20035;-83
2023/05/18 06:01:16;;;;;;;2.55;1.60;;;;;;;;;;10505528;28;19905;-85
2023/05/18 06:06:17;;;;;;;6.65;2.10;;;;;;;;;;10507510;28;20075;-85
2023/05/18 06:11:18;;;;;;;;;;;;;;;;;;10507523;28;20044;-84
2023/05/18 06:16:19;;;;;;;3.45;1.77;;;;;;;;;;10508178;28;19904;-84
2023/05/18 06:21:19;;;;;;;;;;;;;;;;;;10506864;28;20118;-85
2023/05/18 06:26:21;;;;;;;3.63;1.55;;;;;;;;;;10508684;28;20003;-85
2023/05/18 06:31:22;;;;;;;5.72;2.17;;;;;;;;;;10514173;28;20085;-84
2023/05/18 06:36:23;;;;;;;6.28;2.55;;;;;;;;;;10512103;28;20024;-83
2023/05/18 06:41:25;;;;;;;4.88;2.60;;;;;;;;;;10505768;28;20112;-83
2023/05/18 06:46:26;;;;;;;8.05;2.70;;;;;;;;;;10506230;28;20025;-83
2023/05/18 06:51:27;;;;;;;5.43;2.67;;;;;;;;;;10506020;28;20571;-83
2023/05/18 06:56:28;;;;;;;3.95;1.50;;;;;;;;;;10505270;28;20113;-83
2023/05/18 07:01:29;;;;;;;3.63;2.08;;;;;;;;;;10482910;28;20029;-83
2023/05/18 07:06:30;;;;;;;6.47;2.67;;;;;;;;;;10477402;28;20036;-84
2023/05/18 07:11:31;;;;;;;6.32;2.70;;;;;;;;;;10478091;28;20389;-84
2023/05/18 07:16:32;;;;;;;4.78;2.25;;;;;;;;;;10478391;28;20112;-83
2023/05/18 07:21:33;;;;;;;;;;;;;;;;;;10478336;28;20055;-83
2023/05/18 07:26:34;;;;;;;7.97;3.00;;;;;;;;;;10475332;28;19904;-83
2023/05/18 07:31:39;;;;;;;;;;;;;;;;;;10477728;28;20391;-83
2023/05/18 07:36:40;;;;;;;6.03;2.10;;;;;;;;;;10481265;28;19909;-84
2023/05/18 07:41:41;;;;;;;;;;;;;;;;;;10488020;28;20051;-83
2023/05/18 07:46:42;;;;;;;6.28;2.60;;;;;;;;;;10502359;28;20444;-84
2023/05/18 07:51:43;;;;;;;5.13;2.10;;;;;;;;;;10478368;28;20056;-85
2023/05/18 07:56:44;;;;;;;4.60;2.08;;;;;;;;;;10476789;28;20049;-85
2023/05/18 08:01:47;;;;;;;6.97;2.55;;;;;;;;;;10480174;28;20126;-84
2023/05/18 08:06:48;;;;;;;5.72;2.38;;;;;;;;;;10509163;28;20035;-84
2023/05/18 08:11:51;;;;;;;7.78;2.70;;;;;;;;;;10499722;28;20398;-84
2023/05/18 08:16:52;;;;;;;5.82;2.50;;;;;;;;;;10474585;28;20025;-84
2023/05/18 08:21:53;;;;;;;4.75;2.60;;;;;;;;;;10473682;28;20028;-84
2023/05/18 08:26:54;;;;;;;6.47;2.50;;;;;;;;;;10473881;28;20024;-84
2023/05/18 08:31:55;;;;;;;7.80;2.53;;;;;;;;;;10470917;28;20025;-83
2023/05/18 08:36:56;;;;;;;6.68;3.22;;;;;;;;;;10471176;28;20079;-83
2023/05/18 08:42:17;;;;;;;6.68;2.58;;;;;;;;;;10471511;28;20025;-83
2023/05/18 08:47:24;;;;;;;4.72;2.35;;;;;;;;;;10483555;28;20076;-82
2023/05/18 08:52:27;;;;;;;5.70;2.20;;;;;;;;;;10479661;28;20514;-83
2023/05/18 08:57:29;;;;;;;5.75;2.45;;;;;;;;;;10469581;28;20033;-83
2023/05/18 09:02:31;;;;;;;6.25;2.60;;;;;;;;;;10468181;28;20025;-83
2023/05/18 09:07:32;;;;;;;5.93;2.53;;;;;;;;;;10470564;28;20115;-85
2023/05/18 09:12:34;;;;;;;6.75;2.13;;;;;;;;;;10471962;28;20124;-85
2023/05/18 09:17:35;;;;;;;5.78;2.40;;;;;;;;;;10469687;28;20043;-85
2023/05/18 09:22:39;;;;;;;6.07;2.85;;;;;;;;;;10469549;28;20120;-85
2023/05/18 09:27:40;;;;;;;8.57;3.28;;;;;;;;;;10487629;28;20060;-84
2023/05/18 09:32:41;;;;;;;8.52;3.10;;;;;;;;;;10505496;28;20092;-82
2023/05/18 09:37:42;;;;;;;6.13;2.42;;;;;;;;;;10481650;28;20068;-86
2023/05/18 09:42:44;;;;;;;8.02;2.90;;;;;;;;;;10474866;28;20112;-85
2023/05/18 09:47:46;;;;;;;7.15;3.10;;;;;;;;;;10474900;28;20036;-85
2023/05/18 09:52:48;;;;;;;7.78;2.35;;;;;;;;;;10474342;28;20025;-86
2023/05/18 09:57:50;;;;;;;8.32;2.50;;;;;;;;;;10475736;28;20031;-85
2023/05/18 10:02:51;;;;;;;5.95;2.60;;;;;;;;;;10477179;28;20068;-85
2023/05/18 10:07:52;;;;;;;5.38;2.35;;;;;;;;;;10498663;28;20033;-85
2023/05/18 10:12:54;;;;;;;5.72;2.55;;;;;;;;;;10497431;28;20025;-84
2023/05/18 10:17:56;;;;;;;6.57;2.88;;;;;;;;;;10466308;28;20029;-84
2023/05/18 10:22:59;;;;;;;5.80;2.50;;;;;;;;;;10465646;28;20475;-84
2023/05/18 10:28:01;;;;;;;6.10;2.63;;;;;;;;;;10465316;28;20498;-86
2023/05/18 10:33:03;;;;;;;6.07;2.33;;;;;;;;;;10483723;28;20182;-84
2023/05/18 10:38:06;;;;;;;6.75;2.42;;;;;;;;;;10500521;28;20032;-84
2023/05/18 10:43:07;;;;;;;9.63;5.45;;;;;;;;;;10500013;28;20028;-84
2023/05/18 10:48:09;;;;;;;5.75;2.80;;;;;;;;;;10491911;28;20040;-84
2023/05/18 10:53:10;;;;;;;4.40;2.25;;;;;;;;;;10477694;28;20115;-84
2023/05/18 10:58:13;;;;;;;4.18;1.90;;;;;;;;;;10477782;28;20032;-85
2023/05/18 11:03:14;;;;;;;5.35;2.55;;;;;;;;;;10476825;28;20021;-84
2023/05/18 11:08:25;;;;;;;5.70;2.58;;;;;;;;;;10476006;28;20029;-84
2023/05/18 11:13:28;;;;;;;7.38;2.67;;;;;;;;;;10470492;28;20055;-83
2023/05/18 11:18:40;;;;;;;5.07;2.20;;;;;;;;;;10473141;28;20032;-84
2023/05/18 11:23:41;;;;;;;4.35;2.50;;;;;;;;;;10473991;28;20025;-84
2023/05/18 11:28:43;;;;;;;5.47;2.65;;;;;;;;;;10470585;28;20060;-83
2023/05/18 11:33:44;;;;;;;6.63;3.28;;;;;;;;;;10471451;28;20021;-84
2023/05/18 11:38:51;;;;;;;4.63;2.05;;;;;;;;;;10469025;28;20029;-83
2023/05/18 11:44:19;;;;;;;6.32;2.90;;;;;;;;;;10470832;28;20050;-82
2023/05/18 11:49:21;;;;;;;8.13;3.05;;;;;;;;;;10469746;28;20045;-82
2023/05/18 11:54:23;;;;;;;6.93;2.70;;;;;;;;;;10470788;28;20029;-82
2023/05/18 11:59:32;;;;;;;6.70;2.53;;;;;;;;;;10471506;28;20080;-85
2023/05/18 12:04:33;;;;;;;6.03;2.58;;;;;;;;;;10480572;28;20040;-84
2023/05/18 12:09:34;;;;;;;5.35;2.13;;;;;;;;;;10480022;28;20036;-85
2023/05/18 12:14:35;;;;;;;5.50;2.30;;;;;;;;;;10478780;28;20031;-85
2023/05/18 12:19:38;;;;;;;8.48;3.45;;;;;;;;;;10474839;28;20174;-84
2023/05/18 12:24:39;;;;;;;5.22;2.17;;;;;;;;;;10475480;28;20017;-84
2023/05/18 12:29:41;;;;;;;5.80;2.50;;;;;;;;;;10473999;28;20127;-84
2023/05/18 12:34:43;;;;;;;5.38;2.47;;;;;;;;;;10474021;28;20438;-82
2023/05/18 12:39:51;;;;;;;7.45;3.50;;;;;;;;;;10470768;28;20120;-82
2023/05/18 12:44:53;;;;;;;5.68;2.67;;;;;;;;;;10469061;28;20025;-84
2023/05/18 12:49:54;;;;;;;5.53;2.20;;;;;;;;;;10469737;28;20040;-84
2023/05/18 12:54:59;;;;;;;6.78;3.75;;;;;;;;;;10472410;28;20124;-83
2023/05/18 13:00:08;;;;;;;21.30;13.73;;;;;;;;;;10471243;28;20025;-83
2023/05/18 13:05:10;;;;;;;4.50;2.00;;;;;;;;;;10477900;28;20017;-84
2023/05/18 13:10:18;;;;;;;5.38;2.20;;;;;;;;;;10479310;28;20056;-85
2023/05/18 13:15:20;;;;;;;6.45;3.53;;;;;;;;;;10476629;28;20028;-85
2023/05/18 13:20:21;;;;;;;3.92;1.95;;;;;;;;;;10476267;28;20036;-85
2023/05/18 13:25:23;;;;;;;6.72;2.45;;;;;;;;;;10475392;28;20024;-84
2023/05/18 13:30:24;;;;;;;6.45;2.08;;;;;;;;;;10476288;28;20048;-84
2023/05/18 13:35:25;;;;;;;4.80;2.35;;;;;;;;;;10479025;28;20047;-85
2023/05/18 13:40:26;;;;;;;6.30;3.35;;;;;;;;;;10482666;28;20032;-84
2023/05/18 13:45:29;;;;;;;4.55;2.00;;;;;;;;;;10483875;28;20029;-86
2023/05/18 13:50:30;;;;;;;5.88;2.63;;;;;;;;;;10475289;28;20096;-84
2023/05/18 13:55:32;;;;;;;6.10;2.28;;;;;;;;;;10477416;28;20036;-85
2023/05/18 14:00:33;;;;;;;5.75;2.53;;;;;;;;;;10475041;28;20067;-83
2023/05/18 14:05:34;;;;;;;4.80;2.17;;;;;;;;;;10473601;28;20021;-82
2023/05/18 14:10:35;;;;;;;6.13;2.20;;;;;;;;;;10471220;28;20078;-82
2023/05/18 14:15:36;;;;;;;4.60;2.10;;;;;;;;;;10475053;28;20040;-82
2023/05/18 14:20:38;;;;;;;5.97;2.45;;;;;;;;;;10474933;28;20031;-82
2023/05/18 14:25:39;;;;;;;5.97;2.10;;;;;;;;;;10478774;28;20025;-84
2023/05/18 14:30:40;;;;;;;9.07;2.60;;;;;;;;;;10483299;28;20029;-87
2023/05/18 14:35:41;;;;;;;4.10;1.88;;;;;;;;;;10483903;28;20037;-83
2023/05/18 14:40:42;;;;;;;7.28;3.38;;;;;;;;;;10479228;28;20025;-83
2023/05/18 14:45:43;;;;;;;4.90;2.22;;;;;;;;;;10481269;28;20021;-84
2023/05/18 14:50:44;;;;;;;4.43;1.98;;;;;;;;;;10503596;28;20109;-84
2023/05/18 14:55:45;;;;;;;4.82;1.67;;;;;;;;;;10480051;28;20135;-83
2023/05/18 15:00:46;;;;;;;5.47;1.65;;;;;;;;;;10478880;28;20033;-84
2023/05/18 15:05:47;;;;;;;7.15;2.47;;;;;;;;;;10484055;28;20507;-84
2023/05/18 15:10:48;;;;;;;4.00;1.80;;;;;;;;;;10481039;28;20059;-85
2023/05/18 15:15:49;;;;;;;3.55;1.65;;;;;;;;;;10483439;28;20025;-85
2023/05/18 15:20:51;;;;;;;7.25;3.70;;;;;;;;;;10484270;28;20029;-84
2023/05/18 15:25:52;;;;;;;5.63;2.05;;;;;;;;;;10500991;28;20029;-82
2023/05/18 15:30:53;;;;;;;6.32;2.30;;;;;;;;;;10508048;28;20084;-84
2023/05/18 15:35:54;;;;;;;5.03;2.05;;;;;;;;;;10488697;28;20459;-84
2023/05/18 15:40:55;;;;;;;5.28;2.35;;;;;;;;;;10474458;28;20044;-82
2023/05/18 15:45:57;;;;;;;4.53;1.77;;;;;;;;;;10473065;28;20116;-82
2023/05/18 15:50:58;;;;;;;5.07;2.17;;;;;;;;;;10472775;28;20041;-81
2023/05/18 15:55:59;;;;;;;5.75;2.47;;;;;;;;;;10482611;28;20040;-82
2023/05/18 16:01:00;;;;;;;10.32;2.50;;;;;;;;;;10481490;28;20044;-82
2023/05/18 16:06:02;;;;;;;5.35;2.45;;;;;;;;;;10471723;28;20025;-82
2023/05/18 16:11:04;;;;;;;5.72;2.00;;;;;;;;;;10475356;28;20510;-82
2023/05/18 16:16:07;;;;;;;5.70;2.20;;;;;;;;;;10480523;28;20074;-83
2023/05/18 16:21:08;;;;;;;6.43;2.60;;;;;;;;;;10500654;28;20025;-82
2023/05/18 16:26:10;;;;;;;5.03;2.08;;;;;;;;;;10507729;28;20071;-83
2023/05/18 16:31:11;;;;;;;8.85;3.85;;;;;;;;;;10471556;28;20033;-83
2023/05/18 16:36:12;;;;;;;7.88;3.50;;;;;;;;;;10469367;28;20033;-83
2023/05/18 16:41:15;;;;;;;6.60;2.65;;;;;;;;;;10466479;28;20116;-83
2023/05/18 16:46:16;;;;;;;3.55;1.85;;;;;;;;;;10466264;28;20021;-83
2023/05/18 16:51:17;;;;;;;6.40;3.00;;;;;;;;;;10469200;28;20032;-83
2023/05/18 16:56:20;;;;;;;5.88;2.38;;;;;;;;;;10467782;28;20027;-83
2023/05/18 17:01:21;;;;;;;5.38;3.08;;;;;;;;;;10466929;28;20037;-83
2023/05/18 17:06:23;;;;;;;3.88;2.10;;;;;;;;;;10466145;28;20052;-83
2023/05/18 17:11:26;;;;;;;3.97;2.33;;;;;;;;;;10466508;28;20082;-83
2023/05/18 17:16:28;;;;;;;7.60;2.80;;;;;;;;;;10466433;28;20036;-83
2023/05/18 17:21:29;;;;;;;3.78;1.83;;;;;;;;;;10466482;28;20033;-83
2023/05/18 17:26:32;;;;;;;6.70;2.65;;;;;;;;;;10466097;28;20025;-84
2023/05/18 17:31:33;;;;;;;4.50;1.80;;;;;;;;;;10466589;28;20104;-83
2023/05/18 17:36:34;;;;;;;6.85;2.50;;;;;;;;;;10470679;28;20191;-83
2023/05/18 17:41:35;;;;;;;5.15;2.15;;;;;;;;;;10473245;28;20112;-83
2023/05/18 17:46:36;;;;;;;4.40;1.75;;;;;;;;;;10475761;28;20029;-83
2023/05/18 17:51:38;;;;;;;5.80;2.30;;;;;;;;;;10483791;28;20032;-83
2023/05/18 17:56:39;;;;;;;4.80;2.45;;;;;;;;;;10470833;28;20100;-83
2023/05/18 18:01:41;;;;;;;3.33;1.90;;;;;;;;;;10467845;28;20098;-84
2023/05/18 18:06:44;;;;;;;4.32;1.83;;;;;;;;;;10468809;28;20028;-84
2023/05/18 18:11:45;;;;;;;6.10;2.78;;;;;;;;;;10466109;28;20031;-85
2023/05/18 18:16:46;;;;;;;5.93;2.50;;;;;;;;;;10469760;28;20047;-84
2023/05/18 18:21:47;;;;;;;5.30;2.45;;;;;;;;;;10468501;28;20024;-85
2023/05/18 18:26:51;;;;;;;3.60;1.58;;;;;;;;;;10469777;28;20114;-85
2023/05/18 18:31:52;;;;;;;5.32;2.63;;;;;;;;;;10468340;28;20017;-84
2023/05/18 18:36:53;;;;;;;5.05;2.75;;;;;;;;;;10471238;28;20550;-84
2023/05/18 18:41:54;;;;;;;6.97;2.97;;;;;;;;;;10468651;28;20021;-84
2023/05/18 18:46:55;;;;;;;5.07;2.45;;;;;;;;;;10471445;28;20044;-84
2023/05/18 18:51:57;;;;;;;5.78;2.58;;;;;;;;;;10468661;28;20021;-84
2023/05/18 18:56:58;;;;;;;9.30;3.38;;;;;;;;;;10472668;28;20033;-84
2023/05/18 19:01:59;;;;;;;3.92;2.33;;;;;;;;;;10476502;28;20087;-84
2023/05/18 19:07:01;;;;;;;5.82;2.65;;;;;;;;;;10477680;28;20029;-84
2023/05/18 19:12:03;;;;;;;5.90;2.88;;;;;;;;;;10475185;28;20025;-83
